Time;durP1;ratioP1;P1;durP2;ratioP2;P2;SDS_P1;SDS_P2;PMS_P1;PMS_P2;Temp;Humidity;BMP_temperature;BMP_pressure;BME280_temperature;BME280_humidity;BME280_pressure;Samples;Min_cycle;Max_cycle;Signal;HPM_P1;HPM_P2
2022/08/30 00:02:49;;;;;;;5.03;2.15;;;;;;;;;;5047958;28;20044;-60
2022/08/30 00:05:16;;;;;;;2.72;1.73;;;;;;;;;;5053597;28;20024;-60
2022/08/30 00:07:42;;;;;;;2.75;1.65;;;;;;;;;;5049818;28;20136;-60
2022/08/30 00:10:11;;;;;;;2.75;1.50;;;;;;;;;;5047717;28;20037;-60
2022/08/30 00:12:37;;;;;;;5.47;1.67;;;;;;;;;;5053746;28;20476;-60
2022/08/30 00:15:05;;;;;;;4.28;1.67;;;;;;;;;;5053197;28;20065;-60
2022/08/30 00:17:31;;;;;;;3.47;1.60;;;;;;;;;;5053458;28;20031;-60
2022/08/30 00:19:57;;;;;;;2.28;1.80;;;;;;;;;;5051812;28;20513;-60
2022/08/30 00:22:23;;;;;;;3.08;1.98;;;;;;;;;;5053615;28;20104;-60
2022/08/30 00:24:49;;;;;;;4.22;1.80;;;;;;;;;;5053569;28;20127;-60
2022/08/30 00:27:15;;;;;;;3.25;1.95;;;;;;;;;;5052588;28;20476;-61
2022/08/30 00:29:41;;;;;;;3.33;1.80;;;;;;;;;;5050539;28;20029;-60
2022/08/30 00:32:07;;;;;;;2.70;1.30;;;;;;;;;;5051931;28;20106;-60
2022/08/30 00:34:33;;;;;;;5.97;1.50;;;;;;;;;;5052449;28;20040;-60
2022/08/30 00:36:59;;;;;;;6.50;1.63;;;;;;;;;;5052482;28;20162;-60
2022/08/30 00:39:26;;;;;;;4.75;1.33;;;;;;;;;;5052410;28;20110;-60
2022/08/30 00:41:52;;;;;;;3.58;1.83;;;;;;;;;;5052680;28;20456;-60
2022/08/30 00:44:18;;;;;;;1.88;1.58;;;;;;;;;;5052473;28;20032;-60
2022/08/30 00:46:44;;;;;;;3.92;2.10;;;;;;;;;;5052943;28;20044;-60
2022/08/30 00:49:11;;;;;;;2.65;1.83;;;;;;;;;;5052076;28;20445;-60
2022/08/30 00:51:38;;;;;;;2.47;1.70;;;;;;;;;;5051675;28;20031;-60
2022/08/30 00:54:04;;;;;;;2.90;1.35;;;;;;;;;;5052876;28;20384;-60
2022/08/30 00:56:32;;;;;;;2.15;1.50;;;;;;;;;;5051680;28;20491;-60
2022/08/30 00:58:59;;;;;;;2.38;1.50;;;;;;;;;;5050399;28;20082;-60
2022/08/30 01:01:26;;;;;;;3.85;1.55;;;;;;;;;;5052664;28;20381;-60
2022/08/30 01:03:52;;;;;;;4.00;1.65;;;;;;;;;;5052413;28;20040;-59
2022/08/30 01:06:18;;;;;;;3.15;1.50;;;;;;;;;;5051909;28;20033;-59
2022/08/30 01:08:45;;;;;;;2.35;1.50;;;;;;;;;;5050679;28;20045;-59
2022/08/30 01:11:12;;;;;;;2.50;1.20;;;;;;;;;;5051561;28;20037;-60
2022/08/30 01:13:39;;;;;;;2.97;1.42;;;;;;;;;;5051463;28;20579;-60
2022/08/30 01:16:05;;;;;;;3.83;1.83;;;;;;;;;;5046343;28;20025;-60
2022/08/30 01:18:31;;;;;;;1.95;1.55;;;;;;;;;;5049863;28;20063;-60
2022/08/30 01:21:07;;;;;;;2.17;1.88;;;;;;;;;;5050451;28;20029;-60
2022/08/30 01:23:34;;;;;;;4.97;1.90;;;;;;;;;;5052045;28;20056;-60
2022/08/30 01:26:01;;;;;;;1.83;1.50;;;;;;;;;;5052300;28;20028;-60
2022/08/30 01:28:28;;;;;;;2.22;1.70;;;;;;;;;;5051228;28;20039;-60
2022/08/30 01:30:54;;;;;;;3.33;2.35;;;;;;;;;;5052407;28;20029;-60
2022/08/30 01:33:20;;;;;;;2.75;1.80;;;;;;;;;;5051997;28;20186;-59
2022/08/30 01:35:55;;;;;;;2.92;2.05;;;;;;;;;;5052293;28;20108;-60
2022/08/30 01:38:23;;;;;;;3.05;1.60;;;;;;;;;;5051047;28;20376;-60
2022/08/30 01:40:49;;;;;;;2.85;1.77;;;;;;;;;;5043237;28;20108;-59
2022/08/30 01:43:16;;;;;;;7.18;2.33;;;;;;;;;;5050664;28;20028;-60
2022/08/30 01:45:42;;;;;;;4.15;1.92;;;;;;;;;;5050279;28;20033;-60
2022/08/30 01:48:09;;;;;;;5.15;2.13;;;;;;;;;;5049349;28;20036;-59
2022/08/30 01:50:35;;;;;;;5.07;2.10;;;;;;;;;;5051862;28;20025;-60
2022/08/30 01:53:01;;;;;;;6.43;2.40;;;;;;;;;;5047121;28;20044;-59
2022/08/30 01:55:27;;;;;;;6.10;2.80;;;;;;;;;;5051843;28;20079;-60
2022/08/30 01:57:53;;;;;;;3.53;2.58;;;;;;;;;;5047632;28;20468;-60
2022/08/30 02:00:19;;;;;;;3.45;2.35;;;;;;;;;;5051579;28;20029;-60
2022/08/30 02:02:45;;;;;;;6.85;2.65;;;;;;;;;;5050697;28;20028;-60
2022/08/30 02:05:11;;;;;;;3.47;2.75;;;;;;;;;;5051554;28;20484;-60
2022/08/30 02:07:37;;;;;;;5.53;2.97;;;;;;;;;;5048476;28;20427;-60
2022/08/30 02:10:04;;;;;;;3.63;2.35;;;;;;;;;;5050137;28;20400;-59
2022/08/30 02:12:30;;;;;;;4.95;3.10;;;;;;;;;;5050932;28;20021;-59
2022/08/30 02:14:56;;;;;;;4.55;3.20;;;;;;;;;;5051114;28;20029;-60
2022/08/30 02:17:23;;;;;;;4.53;3.13;;;;;;;;;;5050653;28;20392;-60
2022/08/30 02:19:49;;;;;;;5.15;2.70;;;;;;;;;;5049028;28;20048;-59
2022/08/30 02:22:16;;;;;;;2.80;2.13;;;;;;;;;;5051758;28;20064;-60
2022/08/30 02:24:42;;;;;;;5.43;2.45;;;;;;;;;;5050025;28;20021;-60
2022/08/30 02:27:08;;;;;;;6.43;2.33;;;;;;;;;;5051051;28;20116;-60
2022/08/30 02:29:34;;;;;;;7.35;2.47;;;;;;;;;;5046969;28;20108;-59
2022/08/30 02:32:00;;;;;;;7.63;2.50;;;;;;;;;;5050716;28;20036;-60
2022/08/30 02:34:26;;;;;;;5.50;2.10;;;;;;;;;;5050984;28;20545;-59
2022/08/30 02:36:52;;;;;;;8.75;2.83;;;;;;;;;;5050357;28;20107;-60
2022/08/30 02:39:18;;;;;;;2.05;1.63;;;;;;;;;;5049848;28;20035;-59
2022/08/30 02:41:44;;;;;;;4.35;2.50;;;;;;;;;;5050118;28;20028;-60
2022/08/30 02:44:10;;;;;;;3.67;2.42;;;;;;;;;;5049173;28;20480;-60
2022/08/30 02:46:37;;;;;;;5.50;2.78;;;;;;;;;;5049731;28;20055;-60
2022/08/30 02:49:03;;;;;;;2.97;2.28;;;;;;;;;;5048297;28;20471;-60
2022/08/30 02:51:29;;;;;;;3.63;2.30;;;;;;;;;;5049744;28;20044;-60
2022/08/30 02:53:55;;;;;;;5.03;2.70;;;;;;;;;;5050395;28;20029;-59
2022/08/30 02:56:21;;;;;;;4.55;2.40;;;;;;;;;;5050496;28;20033;-60
2022/08/30 02:58:47;;;;;;;5.50;2.50;;;;;;;;;;5046225;28;20021;-59
2022/08/30 03:01:14;;;;;;;3.58;2.35;;;;;;;;;;5050014;28;20025;-61
2022/08/30 03:03:41;;;;;;;11.35;4.82;;;;;;;;;;5046763;28;20669;-60
2022/08/30 03:06:09;;;;;;;4.90;2.75;;;;;;;;;;5049963;28;20029;-60
2022/08/30 03:08:35;;;;;;;3.08;2.47;;;;;;;;;;5045865;28;20021;-60
2022/08/30 03:11:01;;;;;;;5.03;2.80;;;;;;;;;;5050483;28;20035;-60
2022/08/30 03:13:27;;;;;;;3.92;2.50;;;;;;;;;;5050812;28;20021;-61
2022/08/30 03:15:53;;;;;;;9.50;2.78;;;;;;;;;;5050099;28;20041;-61
2022/08/30 03:18:20;;;;;;;2.72;2.17;;;;;;;;;;5048447;28;20032;-60
2022/08/30 03:20:47;;;;;;;3.65;2.03;;;;;;;;;;5051006;28;20021;-60
2022/08/30 03:23:13;;;;;;;2.30;2.10;;;;;;;;;;5048898;28;20029;-60
2022/08/30 03:25:39;;;;;;;3.53;2.28;;;;;;;;;;5049296;28;20025;-60
2022/08/30 03:28:05;;;;;;;2.85;2.17;;;;;;;;;;5049690;28;20400;-61
2022/08/30 03:30:31;;;;;;;6.35;2.70;;;;;;;;;;5050155;28;20033;-60
2022/08/30 03:32:57;;;;;;;2.83;2.22;;;;;;;;;;5049912;28;20133;-59
2022/08/30 03:35:23;;;;;;;4.60;2.95;;;;;;;;;;5049669;28;20523;-60
2022/08/30 03:37:49;;;;;;;5.75;2.72;;;;;;;;;;5048949;28;20061;-60
2022/08/30 03:40:17;;;;;;;3.70;2.72;;;;;;;;;;5050093;28;20068;-60
2022/08/30 03:42:43;;;;;;;3.65;2.80;;;;;;;;;;5049891;28;20029;-59
2022/08/30 03:45:09;;;;;;;7.43;2.55;;;;;;;;;;5049777;28;20036;-59
2022/08/30 03:47:35;;;;;;;3.22;2.20;;;;;;;;;;5049688;28;20029;-59
2022/08/30 03:50:01;;;;;;;4.72;2.80;;;;;;;;;;5049016;28;20036;-59
2022/08/30 03:52:27;;;;;;;3.92;2.83;;;;;;;;;;5049403;28;20090;-60
2022/08/30 03:54:53;;;;;;;4.43;2.95;;;;;;;;;;5050397;28;20036;-59
2022/08/30 03:57:19;;;;;;;6.22;2.83;;;;;;;;;;5050473;28;20036;-60
2022/08/30 03:59:45;;;;;;;3.72;2.45;;;;;;;;;;5048660;28;20091;-60
2022/08/30 04:02:11;;;;;;;5.47;2.83;;;;;;;;;;5047888;28;20048;-60
2022/08/30 04:04:37;;;;;;;5.28;2.67;;;;;;;;;;5049310;28;20143;-60
2022/08/30 04:07:03;;;;;;;7.82;3.45;;;;;;;;;;5050736;28;20036;-60
2022/08/30 04:09:30;;;;;;;7.82;2.97;;;;;;;;;;5051214;28;20048;-59
2022/08/30 04:11:56;;;;;;;3.55;2.75;;;;;;;;;;5051815;28;20484;-59
2022/08/30 04:14:22;;;;;;;6.32;2.67;;;;;;;;;;5053592;28;20527;-60
2022/08/30 04:16:48;;;;;;;3.67;3.20;;;;;;;;;;5054590;28;20124;-59
2022/08/30 04:19:14;;;;;;;4.55;3.00;;;;;;;;;;5051941;28;20039;-60
2022/08/30 04:21:40;;;;;;;8.95;3.30;;;;;;;;;;5049844;28;20024;-60
2022/08/30 04:24:06;;;;;;;4.05;3.03;;;;;;;;;;5052825;28;20107;-60
2022/08/30 04:26:33;;;;;;;3.65;2.78;;;;;;;;;;5053304;28;20368;-60
2022/08/30 04:28:59;;;;;;;3.55;2.83;;;;;;;;;;5047738;28;20025;-60
2022/08/30 04:31:26;;;;;;;6.70;3.03;;;;;;;;;;5047871;28;20480;-61
2022/08/30 04:33:52;;;;;;;6.65;3.40;;;;;;;;;;5052183;28;20031;-60
2022/08/30 04:36:18;;;;;;;4.18;3.30;;;;;;;;;;5049281;28;20033;-59
2022/08/30 04:38:44;;;;;;;3.47;2.72;;;;;;;;;;5050993;28;20021;-60
2022/08/30 04:41:15;;;;;;;4.20;3.50;;;;;;;;;;5049382;28;20029;-59
2022/08/30 04:43:41;;;;;;;4.78;3.80;;;;;;;;;;5047982;28;21129;-59
2022/08/30 04:46:07;;;;;;;4.65;3.83;;;;;;;;;;5052050;28;20388;-59
2022/08/30 04:48:33;;;;;;;4.78;3.72;;;;;;;;;;5049716;28;20108;-61
2022/08/30 04:50:59;;;;;;;5.50;3.92;;;;;;;;;;5051343;28;20033;-59
2022/08/30 04:53:25;;;;;;;5.88;3.83;;;;;;;;;;5048921;28;20036;-59
2022/08/30 04:55:51;;;;;;;5.60;4.13;;;;;;;;;;5046548;28;20036;-60
2022/08/30 04:58:17;;;;;;;6.30;3.90;;;;;;;;;;5052612;28;20040;-60
2022/08/30 05:00:44;;;;;;;6.15;4.80;;;;;;;;;;5046248;28;20487;-59
2022/08/30 05:03:11;;;;;;;5.10;3.47;;;;;;;;;;5044969;28;20029;-60
2022/08/30 05:05:40;;;;;;;6.90;4.07;;;;;;;;;;5048125;28;20044;-61
2022/08/30 05:08:14;;;;;;;6.25;4.20;;;;;;;;;;5049461;28;20029;-59
2022/08/30 05:10:44;;;;;;;7.25;5.10;;;;;;;;;;5051653;28;20138;-59
2022/08/30 05:13:11;;;;;;;6.95;4.88;;;;;;;;;;5048317;28;20535;-60
2022/08/30 05:15:38;;;;;;;5.75;4.03;;;;;;;;;;5049003;28;20112;-59
2022/08/30 05:18:04;;;;;;;6.53;4.35;;;;;;;;;;5048331;28;20037;-62
2022/08/30 05:20:30;;;;;;;12.02;6.93;;;;;;;;;;5048743;28;20102;-59
2022/08/30 05:22:56;;;;;;;9.90;6.45;;;;;;;;;;5051385;28;20480;-59
2022/08/30 05:25:23;;;;;;;8.75;6.20;;;;;;;;;;5049510;28;20036;-60
2022/08/30 05:27:49;;;;;;;8.32;6.22;;;;;;;;;;5052005;28;20025;-60
2022/08/30 05:30:16;;;;;;;8.52;5.88;;;;;;;;;;5048185;28;20452;-59
2022/08/30 05:32:42;;;;;;;7.47;6.00;;;;;;;;;;5049066;28;20040;-60
2022/08/30 05:35:10;;;;;;;12.73;7.10;;;;;;;;;;5047902;28;20029;-60
2022/08/30 05:37:36;;;;;;;9.35;6.03;;;;;;;;;;5051378;28;20467;-61
2022/08/30 05:40:03;;;;;;;9.15;6.75;;;;;;;;;;5048988;28;20459;-60
2022/08/30 05:42:29;;;;;;;9.05;6.38;;;;;;;;;;5051711;28;20041;-61
2022/08/30 05:44:55;;;;;;;7.97;5.45;;;;;;;;;;5051505;28;20096;-60
2022/08/30 05:47:21;;;;;;;7.55;5.65;;;;;;;;;;5048361;28;21851;-60
2022/08/30 05:49:47;;;;;;;8.32;6.38;;;;;;;;;;5050935;28;20056;-60
2022/08/30 05:52:14;;;;;;;9.40;6.47;;;;;;;;;;5051984;28;20085;-61
2022/08/30 05:54:40;;;;;;;8.80;6.65;;;;;;;;;;5051949;28;20090;-60
2022/08/30 05:57:07;;;;;;;10.73;6.53;;;;;;;;;;5051451;28;20067;-60
2022/08/30 05:59:33;;;;;;;8.38;6.38;;;;;;;;;;5050782;28;20032;-60
2022/08/30 06:01:59;;;;;;;9.35;6.22;;;;;;;;;;5049867;28;20035;-60
2022/08/30 06:04:25;;;;;;;10.75;7.50;;;;;;;;;;5050507;28;20025;-60
2022/08/30 06:06:51;;;;;;;10.50;7.38;;;;;;;;;;5050684;28;20025;-59
2022/08/30 06:09:18;;;;;;;22.75;9.52;;;;;;;;;;5048336;28;20041;-60
2022/08/30 06:11:44;;;;;;;15.70;9.15;;;;;;;;;;5051399;28;20017;-60
2022/08/30 06:14:12;;;;;;;13.70;7.32;;;;;;;;;;5049825;28;20052;-59
2022/08/30 06:16:39;;;;;;;24.02;11.25;;;;;;;;;;5051620;28;20032;-60
2022/08/30 06:19:07;;;;;;;28.08;13.55;;;;;;;;;;5049760;28;20139;-60
2022/08/30 06:21:35;;;;;;;32.35;14.20;;;;;;;;;;5051423;28;20036;-60
2022/08/30 06:24:01;;;;;;;24.30;12.98;;;;;;;;;;5047607;28;20094;-61
2022/08/30 06:26:28;;;;;;;23.58;12.25;;;;;;;;;;5051996;28;20692;-60
2022/08/30 06:28:54;;;;;;;25.35;12.15;;;;;;;;;;5050790;28;20111;-60
2022/08/30 06:31:22;;;;;;;21.88;11.63;;;;;;;;;;5043923;28;20034;-60
2022/08/30 06:33:49;;;;;;;19.95;11.75;;;;;;;;;;5050917;28;20035;-60
2022/08/30 06:36:19;;;;;;;19.65;11.45;;;;;;;;;;5039579;28;20036;-59
2022/08/30 06:38:46;;;;;;;20.35;12.90;;;;;;;;;;5050855;28;20043;-61
2022/08/30 06:41:13;;;;;;;16.83;11.30;;;;;;;;;;5049200;28;20044;-59
2022/08/30 06:43:40;;;;;;;19.17;10.55;;;;;;;;;;5051236;28;20112;-60
2022/08/30 06:46:08;;;;;;;21.67;12.70;;;;;;;;;;5051009;28;20025;-60
2022/08/30 06:48:34;;;;;;;21.48;12.95;;;;;;;;;;5048359;28;20021;-61
2022/08/30 06:51:00;;;;;;;16.85;11.77;;;;;;;;;;5049956;28;20100;-60
2022/08/30 06:53:28;;;;;;;17.90;11.05;;;;;;;;;;5045594;28;20074;-60
2022/08/30 06:56:02;;;;;;;22.30;13.20;;;;;;;;;;5050397;28;20025;-60
2022/08/30 06:58:28;;;;;;;19.55;13.45;;;;;;;;;;5049045;28;20215;-60
2022/08/30 07:00:54;;;;;;;23.38;14.25;;;;;;;;;;5049819;28;20037;-60
2022/08/30 07:03:20;;;;;;;23.17;16.50;;;;;;;;;;5049371;28;20043;-60
2022/08/30 07:05:50;;;;;;;24.17;17.00;;;;;;;;;;5049611;28;20032;-59
2022/08/30 07:08:16;;;;;;;24.67;16.05;;;;;;;;;;5050016;28;20021;-59
2022/08/30 07:10:42;;;;;;;21.27;14.82;;;;;;;;;;5048553;28;20119;-60
2022/08/30 07:13:08;;;;;;;21.75;14.25;;;;;;;;;;5049425;28;20048;-60
2022/08/30 07:15:35;;;;;;;20.30;14.25;;;;;;;;;;5050340;28;20037;-59
2022/08/30 07:20:46;;;;;;;14.43;11.05;;;;;;;;;;5048669;28;20476;-60
2022/08/30 07:23:12;;;;;;;11.82;9.38;;;;;;;;;;5048664;28;20033;-60
2022/08/30 07:25:39;;;;;;;12.60;9.68;;;;;;;;;;5051085;28;20469;-60
2022/08/30 07:28:05;;;;;;;12.77;9.25;;;;;;;;;;5050199;28;20491;-60
2022/08/30 07:30:32;;;;;;;11.80;9.18;;;;;;;;;;5048854;28;20029;-60
2022/08/30 07:32:58;;;;;;;13.82;8.60;;;;;;;;;;5049651;28;20492;-60
2022/08/30 07:35:24;;;;;;;11.57;9.00;;;;;;;;;;5049276;28;20146;-60
2022/08/30 07:37:50;;;;;;;7.63;6.38;;;;;;;;;;5046949;28;20078;-60
2022/08/30 07:40:16;;;;;;;8.60;6.68;;;;;;;;;;5050250;28;20133;-59
2022/08/30 07:42:42;;;;;;;7.00;6.30;;;;;;;;;;5052127;28;20056;-61
2022/08/30 07:45:09;;;;;;;7.65;5.80;;;;;;;;;;5052663;28;21585;-60
2022/08/30 07:47:35;;;;;;;10.95;6.45;;;;;;;;;;5052379;28;20020;-59
2022/08/30 07:50:01;;;;;;;8.35;5.57;;;;;;;;;;5053915;28;20048;-59
2022/08/30 07:52:27;;;;;;;5.85;4.50;;;;;;;;;;5053571;28;20031;-60
2022/08/30 07:54:56;;;;;;;6.35;5.10;;;;;;;;;;5053176;28;20032;-60
2022/08/30 07:57:23;;;;;;;8.27;5.57;;;;;;;;;;5052793;28;20101;-59
2022/08/30 07:59:49;;;;;;;7.57;4.75;;;;;;;;;;5050411;28;20037;-61
2022/08/30 08:02:15;;;;;;;9.45;4.35;;;;;;;;;;5051425;28;20155;-59
2022/08/30 08:04:41;;;;;;;6.30;3.83;;;;;;;;;;5052814;28;20021;-61
2022/08/30 08:07:06;;;;;;;4.43;3.50;;;;;;;;;;5051089;28;20032;-59
2022/08/30 08:09:32;;;;;;;4.30;2.70;;;;;;;;;;5048133;28;20134;-59
2022/08/30 08:11:59;;;;;;;4.07;3.33;;;;;;;;;;5053061;28;20048;-60
2022/08/30 08:14:25;;;;;;;4.13;3.42;;;;;;;;;;5051913;28;20035;-59
2022/08/30 08:16:51;;;;;;;4.13;3.25;;;;;;;;;;5053477;28;20025;-59
2022/08/30 08:19:18;;;;;;;4.32;3.92;;;;;;;;;;5051953;28;20021;-59
2022/08/30 08:21:44;;;;;;;6.10;4.45;;;;;;;;;;5053402;28;20025;-59
2022/08/30 08:24:10;;;;;;;13.25;4.45;;;;;;;;;;5051355;28;20021;-59
2022/08/30 08:26:37;;;;;;;6.47;4.60;;;;;;;;;;5051475;28;20492;-60
2022/08/30 08:29:05;;;;;;;7.88;4.80;;;;;;;;;;5052291;28;20028;-60
2022/08/30 08:31:31;;;;;;;7.55;5.57;;;;;;;;;;5047518;28;20021;-61
2022/08/30 08:34:01;;;;;;;6.70;5.57;;;;;;;;;;5063105;28;20102;-59
2022/08/30 08:36:29;;;;;;;6.85;5.22;;;;;;;;;;5053077;28;20137;-59
2022/08/30 08:38:55;;;;;;;9.05;7.43;;;;;;;;;;5050136;28;20448;-60
2022/08/30 08:41:27;;;;;;;10.43;7.28;;;;;;;;;;5051345;28;20025;-60
2022/08/30 08:43:53;;;;;;;10.43;8.70;;;;;;;;;;5051921;28;20031;-58
2022/08/30 08:46:42;;;;;;;11.25;7.90;;;;;;;;;;5053103;28;20028;-61
2022/08/30 08:49:08;;;;;;;9.52;6.80;;;;;;;;;;5050695;28;20025;-58
2022/08/30 08:54:30;;;;;;;6.90;5.90;;;;;;;;;;5052348;28;20063;-58
2022/08/30 08:56:56;;;;;;;6.63;5.47;;;;;;;;;;5052933;28;20043;-60
2022/08/30 08:59:22;;;;;;;10.48;5.60;;;;;;;;;;5050453;28;20029;-60
2022/08/30 09:01:49;;;;;;;6.15;5.40;;;;;;;;;;5050011;28;20496;-61
2022/08/30 09:04:16;;;;;;;5.78;4.95;;;;;;;;;;5049592;28;20120;-59
2022/08/30 09:06:52;;;;;;;7.00;4.75;;;;;;;;;;5052133;28;20036;-60
2022/08/30 09:09:20;;;;;;;8.68;4.82;;;;;;;;;;5053338;28;20037;-60
2022/08/30 09:11:47;;;;;;;4.47;3.97;;;;;;;;;;5050881;28;20075;-61
2022/08/30 09:14:15;;;;;;;3.25;2.70;;;;;;;;;;5053245;28;20400;-60
2022/08/30 09:17:01;;;;;;;4.40;3.97;;;;;;;;;;5052247;28;20041;-60
2022/08/30 09:19:29;;;;;;;3.65;3.10;;;;;;;;;;5050865;28;20545;-60
2022/08/30 09:21:59;;;;;;;3.58;2.90;;;;;;;;;;5050326;28;20060;-60
2022/08/30 09:24:25;;;;;;;4.38;2.80;;;;;;;;;;5052009;28;20435;-60
2022/08/30 09:26:51;;;;;;;5.95;2.65;;;;;;;;;;5052780;28;20500;-59
2022/08/30 09:29:18;;;;;;;2.95;2.58;;;;;;;;;;5049212;28;20388;-59
2022/08/30 09:31:52;;;;;;;3.10;2.50;;;;;;;;;;5040625;28;20032;-59
2022/08/30 09:34:20;;;;;;;3.00;2.33;;;;;;;;;;5051789;28;20029;-60
2022/08/30 09:36:48;;;;;;;2.65;2.38;;;;;;;;;;5052747;28;20033;-60
2022/08/30 09:39:16;;;;;;;4.30;2.38;;;;;;;;;;5050405;28;20433;-61
2022/08/30 09:41:43;;;;;;;2.30;2.10;;;;;;;;;;5051327;28;20506;-60
2022/08/30 09:44:23;;;;;;;2.72;1.75;;;;;;;;;;5052442;28;20028;-59
2022/08/30 09:46:56;;;;;;;2.72;1.48;;;;;;;;;;5050008;28;20033;-60
2022/08/30 09:49:36;;;;;;;2.15;1.58;;;;;;;;;;5049365;28;20104;-60
2022/08/30 09:52:13;;;;;;;2.30;1.58;;;;;;;;;;5048915;28;20036;-61
2022/08/30 09:54:59;;;;;;;1.92;1.65;;;;;;;;;;5039648;28;20021;-60
2022/08/30 09:57:28;;;;;;;3.75;2.08;;;;;;;;;;5050264;28;20037;-60
2022/08/30 09:59:59;;;;;;;2.50;1.40;;;;;;;;;;5050694;28;20588;-60
2022/08/30 10:02:31;;;;;;;1.85;1.35;;;;;;;;;;5050374;28;20028;-60
2022/08/30 10:05:01;;;;;;;1.40;1.02;;;;;;;;;;5036528;28;20022;-60
2022/08/30 10:07:46;;;;;;;2.78;1.30;;;;;;;;;;5048624;28;20025;-59
2022/08/30 10:10:30;;;;;;;2.22;0.82;;;;;;;;;;5046688;28;20052;-60
2022/08/30 10:13:16;;;;;;;1.63;0.57;;;;;;;;;;5046439;28;20063;-61
2022/08/30 10:16:14;;;;;;;2.92;0.77;;;;;;;;;;5046555;28;20037;-62
2022/08/30 10:18:47;;;;;;;1.00;0.68;;;;;;;;;;4995620;28;20037;-59
2022/08/30 10:21:16;;;;;;;1.92;0.63;;;;;;;;;;5048942;28;20112;-59
2022/08/30 10:23:45;;;;;;;1.15;0.60;;;;;;;;;;5047954;28;20021;-60
2022/08/30 10:26:20;;;;;;;1.30;0.50;;;;;;;;;;5047343;28;20036;-60
2022/08/30 10:29:08;;;;;;;1.35;0.60;;;;;;;;;;5045686;28;20020;-59
2022/08/30 10:31:55;;;;;;;0.68;0.50;;;;;;;;;;5050692;28;20125;-59
2022/08/30 10:34:30;;;;;;;0.70;0.50;;;;;;;;;;5043145;28;20036;-60
2022/08/30 10:37:35;;;;;;;1.23;0.80;;;;;;;;;;5050185;28;20043;-60
2022/08/30 10:41:11;;;;;;;1.98;0.50;;;;;;;;;;4989526;28;20552;-60
2022/08/30 10:42:55;;;;;;;1.05;0.55;;;;;;;;;;4988944;28;20042;-60
2022/08/30 10:45:22;;;;;;;2.10;0.73;;;;;;;;;;5025982;28;20048;-61
2022/08/30 10:48:00;;;;;;;0.90;0.70;;;;;;;;;;5048204;28;20029;-60
2022/08/30 10:50:32;;;;;;;1.60;0.60;;;;;;;;;;5048442;28;20071;-61
2022/08/30 10:52:58;;;;;;;1.92;0.70;;;;;;;;;;5051092;28;20025;-59
2022/08/30 10:55:25;;;;;;;2.65;0.70;;;;;;;;;;5050733;28;20039;-60
2022/08/30 10:57:52;;;;;;;1.42;0.90;;;;;;;;;;5048773;28;20036;-60
2022/08/30 11:00:26;;;;;;;1.58;0.90;;;;;;;;;;5049490;28;20043;-60
2022/08/30 11:03:10;;;;;;;1.98;1.00;;;;;;;;;;5050663;28;20075;-60
2022/08/30 11:05:45;;;;;;;1.67;0.80;;;;;;;;;;5049605;28;20033;-60
2022/08/30 11:08:17;;;;;;;1.15;0.80;;;;;;;;;;5050924;28;20033;-62
2022/08/30 11:11:04;;;;;;;1.33;0.80;;;;;;;;;;5050012;28;20064;-59
2022/08/30 11:13:31;;;;;;;1.20;0.85;;;;;;;;;;5034102;28;20033;-60
2022/08/30 11:15:57;;;;;;;2.85;1.38;;;;;;;;;;5050167;28;20366;-60
2022/08/30 11:18:23;;;;;;;2.00;1.15;;;;;;;;;;5055374;28;20044;-61
2022/08/30 11:20:51;;;;;;;1.75;1.15;;;;;;;;;;5051574;28;20029;-60
2022/08/30 11:23:25;;;;;;;3.22;1.40;;;;;;;;;;5048356;28;20039;-60
2022/08/30 11:25:53;;;;;;;2.50;1.30;;;;;;;;;;5051212;28;20025;-61
2022/08/30 11:28:37;;;;;;;2.35;1.42;;;;;;;;;;5046700;28;20499;-59
2022/08/30 11:31:10;;;;;;;2.25;1.50;;;;;;;;;;5052892;28;20028;-60
2022/08/30 11:33:41;;;;;;;2.10;1.33;;;;;;;;;;5053411;28;20029;-58
2022/08/30 11:36:08;;;;;;;1.50;1.30;;;;;;;;;;5043640;28;20033;-58
2022/08/30 11:38:34;;;;;;;2.30;1.55;;;;;;;;;;5051714;28;20024;-59
2022/08/30 11:41:11;;;;;;;2.03;1.48;;;;;;;;;;5051216;28;20039;-59
2022/08/30 11:43:38;;;;;;;1.80;1.33;;;;;;;;;;5051612;28;20455;-60
2022/08/30 11:46:15;;;;;;;3.55;1.50;;;;;;;;;;5052895;28;20107;-59
2022/08/30 11:48:50;;;;;;;1.42;1.13;;;;;;;;;;5043368;28;20029;-59
2022/08/30 11:51:40;;;;;;;1.45;1.10;;;;;;;;;;5048958;28;20118;-59
2022/08/30 11:54:17;;;;;;;2.20;1.27;;;;;;;;;;5014792;28;20444;-60
2022/08/30 11:56:52;;;;;;;1.95;1.17;;;;;;;;;;5052348;28;20060;-59
2022/08/30 11:59:18;;;;;;;1.73;1.13;;;;;;;;;;5053121;28;20476;-59
2022/08/30 12:01:44;;;;;;;3.25;1.95;;;;;;;;;;5053274;28;20027;-60
2022/08/30 12:04:25;;;;;;;2.00;1.42;;;;;;;;;;5053515;28;20365;-59
2022/08/30 12:06:53;;;;;;;2.75;1.63;;;;;;;;;;5052631;28;20032;-60
2022/08/30 12:09:25;;;;;;;2.42;1.45;;;;;;;;;;5051038;28;20103;-60
2022/08/30 12:11:56;;;;;;;2.95;1.00;;;;;;;;;;5050690;28;20033;-60
2022/08/30 12:14:33;;;;;;;1.40;1.00;;;;;;;;;;5050652;28;20543;-59
2022/08/30 12:19:46;;;;;;;1.58;0.82;;;;;;;;;;5052934;28;20090;-60
2022/08/30 12:22:15;;;;;;;1.40;0.80;;;;;;;;;;5051182;28;20025;-60
2022/08/30 12:24:43;;;;;;;1.85;0.60;;;;;;;;;;5050188;28;20100;-61
2022/08/30 12:27:26;;;;;;;1.48;1.00;;;;;;;;;;5053020;28;20374;-60
2022/08/30 12:29:53;;;;;;;0.90;0.70;;;;;;;;;;5046595;28;20025;-60
2022/08/30 12:32:21;;;;;;;2.28;0.80;;;;;;;;;;5046181;28;20138;-59
2022/08/30 12:34:51;;;;;;;0.80;0.60;;;;;;;;;;5046882;28;20075;-60
2022/08/30 12:37:25;;;;;;;2.33;1.05;;;;;;;;;;5046742;28;20025;-61
2022/08/30 12:40:03;;;;;;;1.85;0.90;;;;;;;;;;5050330;28;20021;-60
2022/08/30 12:42:30;;;;;;;0.82;0.50;;;;;;;;;;5053123;28;20523;-60
2022/08/30 12:44:58;;;;;;;1.10;0.70;;;;;;;;;;5053900;28;20051;-60
2022/08/30 12:47:28;;;;;;;2.03;1.00;;;;;;;;;;5054166;28;20025;-59
2022/08/30 12:49:54;;;;;;;0.95;0.65;;;;;;;;;;5053037;28;20029;-60
2022/08/30 12:52:22;;;;;;;1.05;0.60;;;;;;;;;;5053687;28;20492;-60
2022/08/30 12:54:48;;;;;;;1.25;0.65;;;;;;;;;;5053680;28;20033;-59
2022/08/30 12:57:34;;;;;;;1.33;0.70;;;;;;;;;;5053780;28;20086;-60
2022/08/30 13:00:00;;;;;;;1.20;0.60;;;;;;;;;;5049987;28;20037;-59
2022/08/30 13:02:27;;;;;;;2.20;0.75;;;;;;;;;;5053372;28;20078;-61
2022/08/30 13:04:54;;;;;;;1.00;0.60;;;;;;;;;;5053285;28;20068;-61
2022/08/30 13:07:38;;;;;;;1.95;0.80;;;;;;;;;;5053703;28;20013;-59
2022/08/30 13:10:23;;;;;;;2.35;1.00;;;;;;;;;;5053237;28;20135;-60
2022/08/30 13:12:59;;;;;;;1.05;0.60;;;;;;;;;;5053557;28;20029;-59
2022/08/30 13:15:31;;;;;;;2.95;0.73;;;;;;;;;;5053252;28;20044;-58
2022/08/30 13:18:17;;;;;;;1.20;0.55;;;;;;;;;;5041249;28;20481;-60
2022/08/30 13:20:45;;;;;;;1.08;0.68;;;;;;;;;;5053054;28;20079;-59
2022/08/30 13:23:11;;;;;;;3.30;0.77;;;;;;;;;;5053341;28;20036;-60
2022/08/30 13:25:38;;;;;;;1.55;1.27;;;;;;;;;;5052938;28;20107;-60
2022/08/30 13:28:05;;;;;;;1.25;1.05;;;;;;;;;;5053595;28;20431;-60
2022/08/30 13:30:32;;;;;;;2.50;1.40;;;;;;;;;;5052651;28;20104;-60
2022/08/30 13:33:00;;;;;;;1.95;1.40;;;;;;;;;;5052921;28;20033;-60
2022/08/30 13:35:26;;;;;;;4.50;1.92;;;;;;;;;;5053286;28;20032;-60
2022/08/30 13:37:52;;;;;;;2.38;1.50;;;;;;;;;;5052857;28;20033;-59
2022/08/30 13:40:18;;;;;;;3.88;1.58;;;;;;;;;;5052532;28;20139;-60
2022/08/30 13:42:44;;;;;;;2.15;1.83;;;;;;;;;;5052887;28;20044;-59
2022/08/30 13:45:11;;;;;;;2.25;1.60;;;;;;;;;;5052619;28;20067;-60
2022/08/30 13:47:37;;;;;;;3.08;1.88;;;;;;;;;;5052644;28;20024;-61
2022/08/30 13:50:04;;;;;;;2.83;1.70;;;;;;;;;;5052185;28;20440;-60
2022/08/30 13:52:30;;;;;;;2.15;1.70;;;;;;;;;;5052118;28;20039;-61
2022/08/30 13:54:56;;;;;;;1.70;1.33;;;;;;;;;;5046509;28;20033;-60
2022/08/30 13:57:24;;;;;;;2.83;1.80;;;;;;;;;;5046150;28;20041;-60
2022/08/30 13:59:50;;;;;;;4.07;1.60;;;;;;;;;;5050857;28;20134;-59
2022/08/30 14:02:16;;;;;;;3.25;2.08;;;;;;;;;;5048757;28;20048;-60
2022/08/30 14:04:42;;;;;;;2.00;1.40;;;;;;;;;;5046236;28;20029;-59
2022/08/30 14:07:08;;;;;;;2.58;1.50;;;;;;;;;;5048238;28;20029;-60
2022/08/30 14:09:34;;;;;;;2.45;1.45;;;;;;;;;;5050687;28;20124;-59
2022/08/30 14:12:00;;;;;;;3.20;1.60;;;;;;;;;;5048948;28;20044;-60
2022/08/30 14:14:26;;;;;;;3.72;1.33;;;;;;;;;;5052133;28;20481;-60
2022/08/30 14:16:52;;;;;;;3.10;1.98;;;;;;;;;;5046181;28;20108;-59
2022/08/30 14:19:18;;;;;;;2.60;1.50;;;;;;;;;;5045582;28;20037;-59
2022/08/30 14:21:44;;;;;;;2.30;1.20;;;;;;;;;;5050184;28;20372;-59
2022/08/30 14:24:10;;;;;;;2.05;0.80;;;;;;;;;;5051351;28;20029;-59
2022/08/30 14:26:39;;;;;;;1.23;0.65;;;;;;;;;;5050167;28;20025;-59
2022/08/30 14:29:07;;;;;;;1.55;0.90;;;;;;;;;;5051143;28;20524;-60
2022/08/30 14:31:33;;;;;;;1.33;0.80;;;;;;;;;;5051478;28;20033;-60
2022/08/30 14:34:00;;;;;;;2.25;0.60;;;;;;;;;;5049843;28;20062;-60
2022/08/30 14:36:26;;;;;;;3.67;1.13;;;;;;;;;;5044668;28;20124;-60
2022/08/30 14:38:52;;;;;;;1.73;1.00;;;;;;;;;;5049010;28;20109;-60
2022/08/30 14:41:18;;;;;;;1.35;0.50;;;;;;;;;;5049242;28;20029;-59
2022/08/30 14:43:44;;;;;;;1.15;0.47;;;;;;;;;;5046882;28;20032;-59
2022/08/30 14:46:10;;;;;;;1.40;0.70;;;;;;;;;;5047458;28;20107;-58
2022/08/30 14:48:37;;;;;;;4.75;0.70;;;;;;;;;;5047852;28;20059;-59
2022/08/30 14:51:10;;;;;;;1.88;0.70;;;;;;;;;;5049881;28;20028;-60
2022/08/30 14:53:36;;;;;;;1.38;0.60;;;;;;;;;;5044082;28;20059;-59
2022/08/30 14:56:06;;;;;;;0.95;0.65;;;;;;;;;;5049345;28;20032;-60
2022/08/30 14:58:33;;;;;;;1.65;0.57;;;;;;;;;;5051753;28;20116;-60